createdAt,value
2017-10-15T00:01:32.708Z,77.74
2017-10-15T00:03:59.704Z,78.20
2017-10-15T00:06:25.962Z,77.92
2017-10-15T00:08:52.232Z,78.03
2017-10-15T00:11:18.542Z,78.10
2017-10-15T00:13:46.642Z,78.43
2017-10-15T00:16:12.912Z,78.51
2017-10-15T00:18:39.186Z,78.00
2017-10-15T00:21:06.208Z,78.17
2017-10-15T00:23:34.043Z,78.75
2017-10-15T00:26:00.333Z,78.99
2017-10-15T00:28:27.338Z,79.24
2017-10-15T00:30:53.605Z,79.46
2017-10-15T00:33:20.644Z,79.11
2017-10-15T00:35:47.710Z,79.22
2017-10-15T00:38:13.965Z,79.58
2017-10-15T00:40:40.283Z,78.74
2017-10-15T00:43:06.565Z,78.77
2017-10-15T00:45:32.858Z,79.10
2017-10-15T00:47:59.113Z,79.33
2017-10-15T00:50:25.470Z,79.69
2017-10-15T00:52:51.745Z,80.14
2017-10-15T00:55:18.087Z,79.94
2017-10-15T00:57:44.390Z,79.67
2017-10-15T01:00:10.671Z,80.03
2017-10-15T01:02:36.956Z,80.28
2017-10-15T01:05:03.282Z,80.50
2017-10-15T01:07:29.599Z,80.76
2017-10-15T01:09:56.614Z,81.05
2017-10-15T01:12:22.904Z,81.12
2017-10-15T01:14:49.200Z,81.01
2017-10-15T01:17:16.201Z,80.71
2017-10-15T01:19:42.476Z,80.33
2017-10-15T01:22:09.519Z,80.25
2017-10-15T01:24:36.554Z,80.58
2017-10-15T01:27:02.821Z,80.31
2017-10-15T01:29:29.231Z,80.39
2017-10-15T01:31:56.305Z,80.34
2017-10-15T01:34:22.560Z,80.65
2017-10-15T01:36:48.809Z,81.33
2017-10-15T01:39:15.123Z,81.40
2017-10-15T01:41:41.409Z,81.66
2017-10-15T01:44:07.698Z,82.32
2017-10-15T01:46:34.017Z,82.08
2017-10-15T01:49:00.282Z,82.07
2017-10-15T01:51:26.560Z,81.54
2017-10-15T01:53:52.797Z,80.90
2017-10-15T01:56:19.092Z,80.85
2017-10-15T01:58:46.100Z,81.18
2017-10-15T02:01:12.366Z,81.12
2017-10-15T02:03:38.664Z,81.27
2017-10-15T02:06:04.998Z,81.63
2017-10-15T02:08:31.279Z,82.08
2017-10-15T02:10:57.613Z,82.09
2017-10-15T02:13:23.900Z,81.59
2017-10-15T02:15:50.199Z,81.53
2017-10-15T02:18:16.475Z,80.95
2017-10-15T02:20:43.486Z,80.92
2017-10-15T02:23:09.813Z,80.82
2017-10-15T02:25:36.079Z,81.18
2017-10-15T02:28:03.161Z,81.59
2017-10-15T02:30:29.425Z,81.00
2017-10-15T02:32:55.693Z,80.88
2017-10-15T02:35:22.689Z,80.56
2017-10-15T02:37:48.946Z,80.64
2017-10-15T02:40:15.261Z,80.78
2017-10-15T02:42:41.553Z,80.93
2017-10-15T02:45:07.871Z,81.42
2017-10-15T02:47:34.218Z,81.54
2017-10-15T02:50:00.487Z,80.96
2017-10-15T02:52:26.779Z,81.00
2017-10-15T02:54:53.105Z,81.03
2017-10-15T02:57:19.408Z,80.91
2017-10-15T02:59:46.419Z,80.52
2017-10-15T03:02:12.653Z,79.99
2017-10-15T03:04:38.921Z,80.21
2017-10-15T03:07:05.908Z,80.73
2017-10-15T03:09:32.346Z,80.65
2017-10-15T03:11:58.632Z,80.58
2017-10-15T03:14:25.620Z,80.97
2017-10-15T03:16:51.908Z,80.62
2017-10-15T03:19:18.224Z,80.82
2017-10-15T03:21:45.334Z,81.00
2017-10-15T03:24:11.618Z,80.96
2017-10-15T03:26:37.912Z,80.89
2017-10-15T03:29:04.159Z,80.87
2017-10-15T03:31:30.582Z,80.41
2017-10-15T03:33:56.862Z,80.00
2017-10-15T03:36:23.230Z,80.16
2017-10-15T03:38:49.504Z,80.40
2017-10-15T03:41:16.849Z,80.60
2017-10-15T03:43:43.903Z,80.14
2017-10-15T03:46:10.940Z,79.89
2017-10-15T03:48:37.218Z,79.77
2017-10-15T03:51:03.525Z,79.85
2017-10-15T03:53:29.771Z,80.43
2017-10-15T03:55:56.097Z,80.70
2017-10-15T03:58:22.338Z,79.86
2017-10-15T04:00:48.583Z,79.88
2017-10-15T04:03:14.836Z,80.00
2017-10-15T04:05:41.089Z,80.58
2017-10-15T04:08:08.118Z,81.01
2017-10-15T04:10:34.417Z,80.33
2017-10-15T04:13:00.683Z,79.83
2017-10-15T04:15:26.927Z,79.84
2017-10-15T04:17:53.246Z,80.57
2017-10-15T04:20:19.533Z,80.80
2017-10-15T04:22:46.001Z,80.32
2017-10-15T04:25:13.793Z,79.93
2017-10-15T04:27:40.053Z,80.44
2017-10-15T04:30:06.425Z,80.89
2017-10-15T04:32:32.728Z,80.84
2017-10-15T04:34:58.986Z,81.17
2017-10-15T04:37:25.253Z,81.02
2017-10-15T04:39:58.619Z,80.99
2017-10-15T04:42:24.861Z,80.86
2017-10-15T04:44:51.882Z,80.96
2017-10-15T04:47:18.212Z,80.95
2017-10-15T04:49:44.575Z,81.42
2017-10-15T04:52:11.618Z,81.74
2017-10-15T04:54:38.628Z,81.62
2017-10-15T04:57:04.902Z,82.12
2017-10-15T04:59:31.924Z,82.38
2017-10-15T05:01:58.238Z,82.56
2017-10-15T05:04:24.672Z,82.78
2017-10-15T05:06:50.994Z,82.33
2017-10-15T05:09:17.256Z,80.54
2017-10-15T05:11:43.509Z,80.54
2017-10-15T05:14:10.547Z,80.65
2017-10-15T05:16:38.493Z,80.84
2017-10-15T05:19:04.832Z,80.05
2017-10-15T05:21:31.139Z,80.01
2017-10-15T05:23:57.411Z,80.33
2017-10-15T05:26:24.456Z,80.98
2017-10-15T05:28:51.469Z,81.22
2017-10-15T05:31:17.757Z,81.24
2017-10-15T05:33:44.069Z,81.11
2017-10-15T05:36:10.400Z,80.56
2017-10-15T05:38:37.401Z,80.81
2017-10-15T05:41:03.674Z,80.94
2017-10-15T05:43:30.700Z,80.74
2017-10-15T05:45:57.185Z,80.85
2017-10-15T05:48:23.506Z,80.60
2017-10-15T05:50:49.810Z,80.74
2017-10-15T05:53:16.276Z,80.35
2017-10-15T05:55:42.534Z,79.82
2017-10-15T05:58:08.874Z,79.66
2017-10-15T06:00:35.140Z,79.83
2017-10-15T06:03:02.130Z,79.98
2017-10-15T06:05:28.410Z,79.91
2017-10-15T06:07:55.426Z,79.41
2017-10-15T06:10:21.694Z,79.08
2017-10-15T06:12:48.754Z,79.20
2017-10-15T06:15:15.073Z,79.22
2017-10-15T06:17:42.149Z,78.66
2017-10-15T06:20:08.379Z,78.93
2017-10-15T06:22:34.684Z,78.48
2017-10-15T06:25:01.702Z,78.52
2017-10-15T06:27:27.994Z,78.15
2017-10-15T06:29:54.333Z,78.45
2017-10-15T06:32:20.664Z,78.05
2017-10-15T06:34:47.015Z,78.18
2017-10-15T06:37:14.227Z,77.74
2017-10-15T06:39:40.571Z,77.56
2017-10-15T06:42:06.875Z,77.14
2017-10-15T06:44:33.237Z,76.90
2017-10-15T06:46:59.542Z,76.71
2017-10-15T06:49:26.614Z,75.92
2017-10-15T06:51:52.989Z,74.96
2017-10-15T06:54:19.539Z,73.70
2017-10-15T06:56:46.839Z,73.39
2017-10-15T06:59:13.180Z,73.14
2017-10-15T07:01:39.472Z,72.42
2017-10-15T07:04:06.468Z,71.94
2017-10-15T07:06:32.767Z,71.46
2017-10-15T07:08:59.061Z,71.03
2017-10-15T07:11:25.381Z,70.72
2017-10-15T07:13:51.689Z,70.58
2017-10-15T07:16:18.021Z,70.09
2017-10-15T07:18:44.341Z,69.65
2017-10-15T07:21:10.684Z,68.77
2017-10-15T07:23:38.052Z,68.26
2017-10-15T07:26:04.336Z,67.57
2017-10-15T07:28:30.597Z,67.35
2017-10-15T07:30:56.862Z,66.96
2017-10-15T07:33:23.992Z,65.83
2017-10-15T07:35:50.245Z,66.17
2017-10-15T07:38:17.228Z,65.79
2017-10-15T07:40:43.489Z,65.11
2017-10-15T07:43:09.876Z,65.09
2017-10-15T07:45:36.206Z,64.33
2017-10-15T07:48:02.523Z,63.28
2017-10-15T07:50:29.564Z,62.96
2017-10-15T07:52:56.583Z,62.95
2017-10-15T07:55:22.852Z,62.01
2017-10-15T07:57:50.714Z,61.77
2017-10-15T08:00:17.819Z,62.09
2017-10-15T08:02:44.131Z,61.79
2017-10-15T08:05:10.411Z,61.44
2017-10-15T08:07:36.688Z,61.15
2017-10-15T08:10:03.010Z,61.36
2017-10-15T08:12:29.285Z,61.55
2017-10-15T08:14:55.577Z,60.70
2017-10-15T08:17:21.845Z,60.86
2017-10-15T08:19:48.183Z,60.63
2017-10-15T08:22:14.463Z,60.44
2017-10-15T08:24:40.769Z,60.53
2017-10-15T08:27:07.813Z,60.75
2017-10-15T08:29:34.821Z,60.32
2017-10-15T08:32:01.091Z,59.56
2017-10-15T08:34:28.133Z,59.04
2017-10-15T08:36:55.213Z,58.87
2017-10-15T08:39:21.552Z,58.91
2017-10-15T08:41:47.878Z,57.79
2017-10-15T08:44:14.176Z,57.97
2017-10-15T08:46:41.188Z,58.31
2017-10-15T08:49:08.484Z,58.46
2017-10-15T08:51:35.544Z,57.54
2017-10-15T08:54:01.845Z,57.47
2017-10-15T08:56:28.168Z,57.00
2017-10-15T08:58:54.440Z,57.02
2017-10-15T09:01:20.705Z,57.55
2017-10-15T09:03:47.005Z,57.44
2017-10-15T09:06:13.396Z,57.64
2017-10-15T09:08:39.815Z,57.47
2017-10-15T09:11:06.235Z,57.78
2017-10-15T09:13:33.566Z,57.25
2017-10-15T09:15:59.921Z,56.90
2017-10-15T09:18:26.207Z,57.11
2017-10-15T09:20:53.213Z,56.54
2017-10-15T09:23:19.534Z,56.47
2017-10-15T09:25:45.859Z,56.47
2017-10-15T09:28:12.189Z,56.34
2017-10-15T09:30:39.169Z,56.76
2017-10-15T09:33:05.514Z,56.46
2017-10-15T09:35:32.546Z,56.75
2017-10-15T09:37:58.866Z,56.84
2017-10-15T09:40:25.172Z,56.30
2017-10-15T09:42:51.562Z,55.89
2017-10-15T09:45:18.610Z,56.02
2017-10-15T09:47:45.722Z,56.27
2017-10-15T09:50:12.025Z,56.17
2017-10-15T09:52:38.323Z,56.25
2017-10-15T09:55:05.357Z,55.21
2017-10-15T09:57:32.418Z,55.22
2017-10-15T09:59:59.499Z,55.11
2017-10-15T10:02:25.809Z,55.80
2017-10-15T10:04:52.072Z,55.38
2017-10-15T10:07:18.511Z,54.71
2017-10-15T10:09:44.905Z,54.72
2017-10-15T10:12:11.169Z,55.37
2017-10-15T10:14:37.458Z,54.65
2017-10-15T10:17:03.799Z,54.60
2017-10-15T10:19:30.109Z,54.49
2017-10-15T10:21:57.210Z,55.17
2017-10-15T10:24:23.514Z,53.93
2017-10-15T10:26:49.899Z,53.74
2017-10-15T10:29:16.253Z,54.04
2017-10-15T10:31:43.314Z,53.98
2017-10-15T10:34:10.473Z,54.25
2017-10-15T10:36:37.004Z,54.09
2017-10-15T10:39:03.539Z,54.13
2017-10-15T10:41:29.940Z,53.75
2017-10-15T10:43:56.257Z,53.73
2017-10-15T10:46:22.554Z,53.68
2017-10-15T10:48:48.908Z,53.29
2017-10-15T10:51:15.318Z,53.38
2017-10-15T10:53:41.722Z,53.55
2017-10-15T10:56:08.840Z,52.87
2017-10-15T10:58:35.249Z,53.34
2017-10-15T11:01:01.611Z,51.31
2017-10-15T11:03:27.928Z,49.07
2017-10-15T11:05:54.265Z,45.18
2017-10-15T11:08:20.664Z,41.70
2017-10-15T11:10:47.073Z,36.48
2017-10-15T11:13:13.403Z,33.36
2017-10-15T11:15:39.731Z,31.16
2017-10-15T11:18:06.795Z,28.83
2017-10-15T11:20:33.170Z,26.67
2017-10-15T11:22:59.643Z,24.86
2017-10-15T11:25:26.738Z,23.36
2017-10-15T11:27:53.081Z,22.58
2017-10-15T11:30:19.422Z,20.51
2017-10-15T11:32:46.441Z,19.24
2017-10-15T11:35:12.757Z,17.95
2017-10-15T11:37:39.101Z,16.47
2017-10-15T11:40:05.432Z,15.49
2017-10-15T11:42:32.325Z,15.22
2017-10-15T11:44:59.146Z,14.48
2017-10-15T11:47:26.997Z,14.26
2017-10-15T11:49:54.145Z,13.45
2017-10-15T11:52:20.417Z,13.15
2017-10-15T11:54:46.803Z,13.80
2017-10-15T11:57:13.082Z,14.30
2017-10-15T11:59:40.187Z,14.20
2017-10-15T12:02:06.676Z,13.46
2017-10-15T12:04:32.975Z,13.36
2017-10-15T12:06:59.304Z,13.30
2017-10-15T12:09:25.592Z,13.20
2017-10-15T12:11:51.948Z,12.12
2017-10-15T12:14:18.298Z,11.61
2017-10-15T12:16:44.572Z,12.06
2017-10-15T12:19:10.925Z,11.86
2017-10-15T12:21:37.220Z,11.91
2017-10-15T12:24:04.353Z,12.26
2017-10-15T12:26:30.663Z,11.72
2017-10-15T12:28:56.985Z,11.76
2017-10-15T12:31:24.092Z,11.21
2017-10-15T12:33:50.394Z,11.28
2017-10-15T12:36:16.754Z,11.42
2017-10-15T12:38:43.088Z,11.62
2017-10-15T12:41:09.406Z,11.42
2017-10-15T12:43:35.731Z,10.98
2017-10-15T12:46:02.722Z,10.90
2017-10-15T12:48:29.038Z,11.06
2017-10-15T12:50:55.366Z,10.59
2017-10-15T12:53:22.120Z,11.90
2017-10-15T12:55:48.494Z,11.34
2017-10-15T12:58:14.954Z,13.21
2017-10-15T13:00:41.403Z,13.66
2017-10-15T13:03:07.793Z,13.52
2017-10-15T13:05:35.082Z,13.12
2017-10-15T13:08:01.454Z,11.86
2017-10-15T13:10:27.801Z,11.48
2017-10-15T13:12:54.110Z,11.05
2017-10-15T13:15:20.430Z,10.80
2017-10-15T13:17:46.911Z,10.40
2017-10-15T13:20:13.246Z,9.80
2017-10-15T13:22:39.625Z,9.70
2017-10-15T13:25:06.825Z,9.55
2017-10-15T13:27:33.203Z,9.66
2017-10-15T13:29:59.529Z,9.77
2017-10-15T13:32:25.823Z,10.13
2017-10-15T13:34:52.127Z,10.23
2017-10-15T13:37:18.454Z,11.29
2017-10-15T13:39:44.746Z,10.89
2017-10-15T13:42:11.098Z,10.88
2017-10-15T13:44:37.424Z,10.71
2017-10-15T13:47:03.703Z,10.31
2017-10-15T13:49:30.012Z,10.65
2017-10-15T13:51:56.302Z,10.36
2017-10-15T13:54:22.590Z,10.87
2017-10-15T13:56:48.982Z,10.52
2017-10-15T13:59:15.310Z,10.46
2017-10-15T14:01:41.691Z,10.67
2017-10-15T14:04:08.093Z,10.70
2017-10-15T14:06:34.366Z,10.42
2017-10-15T14:09:01.444Z,10.27
2017-10-15T14:11:27.814Z,10.63
2017-10-15T14:13:54.187Z,11.82
2017-10-15T14:16:21.254Z,11.92
2017-10-15T14:18:47.855Z,11.64
2017-10-15T14:21:14.179Z,11.43
2017-10-15T14:23:40.493Z,11.05
2017-10-15T14:26:06.789Z,11.01
2017-10-15T14:28:33.686Z,12.01
2017-10-15T14:30:59.991Z,11.85
2017-10-15T14:33:26.316Z,12.21
2017-10-15T14:35:52.659Z,12.83
2017-10-15T14:38:18.974Z,12.59
2017-10-15T14:40:45.311Z,12.35
2017-10-15T14:43:11.682Z,12.35
2017-10-15T14:45:38.111Z,12.86
2017-10-15T14:48:04.489Z,12.97
2017-10-15T14:50:30.919Z,13.13
2017-10-15T14:52:57.283Z,13.19
2017-10-15T14:55:23.625Z,13.36
2017-10-15T14:57:49.929Z,14.33
2017-10-15T15:00:16.234Z,17.35
2017-10-15T15:02:42.602Z,20.41
2017-10-15T15:05:09.142Z,23.92
2017-10-15T15:07:37.870Z,26.70
2017-10-15T15:10:06.941Z,28.48
2017-10-15T15:12:33.589Z,30.42
2017-10-15T15:14:59.893Z,32.46
2017-10-15T15:17:26.326Z,33.95
2017-10-15T15:19:52.693Z,35.11
2017-10-15T15:22:19.469Z,35.05
2017-10-15T15:24:45.838Z,35.88
2017-10-15T15:27:12.147Z,36.75
2017-10-15T15:29:38.539Z,37.39
2017-10-15T15:32:05.605Z,37.92
2017-10-15T15:34:32.300Z,38.83
2017-10-15T15:36:58.613Z,39.85
2017-10-15T15:39:24.994Z,40.38
2017-10-15T15:41:52.196Z,41.83
2017-10-15T15:44:18.561Z,42.96
2017-10-15T15:46:44.978Z,43.57
2017-10-15T15:49:12.034Z,44.38
2017-10-15T15:51:39.110Z,44.28
2017-10-15T15:54:06.236Z,44.74
2017-10-15T15:56:32.752Z,46.13
2017-10-15T15:58:59.120Z,47.09
2017-10-15T16:01:26.196Z,48.07
2017-10-15T16:03:52.480Z,48.64
2017-10-15T16:06:18.820Z,49.00
2017-10-15T16:08:46.553Z,49.66
2017-10-15T16:11:12.961Z,50.29
2017-10-15T16:13:39.405Z,51.20
2017-10-15T16:16:05.681Z,52.71
2017-10-15T16:18:33.178Z,53.82
2017-10-15T16:21:00.579Z,54.60
2017-10-15T16:23:27.132Z,55.10
2017-10-15T16:25:53.450Z,56.29
2017-10-15T16:28:19.846Z,56.96
2017-10-15T16:30:46.388Z,57.53
2017-10-15T16:33:13.832Z,58.60
2017-10-15T16:35:40.195Z,59.29
2017-10-15T16:38:06.687Z,59.78
2017-10-15T16:40:33.124Z,60.27
2017-10-15T16:42:59.628Z,60.93
2017-10-15T16:45:25.945Z,61.50
2017-10-15T16:47:52.329Z,62.20
2017-10-15T16:50:19.513Z,62.58
2017-10-15T16:52:45.945Z,63.16
2017-10-15T16:55:12.312Z,63.90
2017-10-15T16:57:38.621Z,64.06
2017-10-15T17:00:05.109Z,64.15
2017-10-15T17:02:31.653Z,64.17
2017-10-15T17:04:58.075Z,64.09
2017-10-15T17:07:24.448Z,64.11
2017-10-15T17:09:50.829Z,64.41
2017-10-15T17:12:17.242Z,64.36
2017-10-15T17:14:43.575Z,64.32
2017-10-15T17:17:09.949Z,64.24
2017-10-15T17:19:40.159Z,64.05
2017-10-15T17:22:06.560Z,64.55
2017-10-15T17:24:32.843Z,64.62
2017-10-15T17:27:00.210Z,64.84
2017-10-15T17:29:27.822Z,65.19
2017-10-15T17:31:54.150Z,67.35
2017-10-15T17:34:20.559Z,66.01
2017-10-15T17:36:46.955Z,64.72
2017-10-15T17:39:13.287Z,65.68
2017-10-15T17:41:39.636Z,66.08
2017-10-15T17:44:06.063Z,66.34
2017-10-15T17:46:32.394Z,66.73
2017-10-15T17:48:58.832Z,67.03
2017-10-15T17:51:25.271Z,67.36
2017-10-15T17:53:51.673Z,67.75
2017-10-15T17:56:18.048Z,68.02
2017-10-15T17:58:44.386Z,68.32
2017-10-15T18:01:11.293Z,68.65
2017-10-15T18:03:37.649Z,68.71
2017-10-15T18:06:04.487Z,68.91
2017-10-15T18:08:30.932Z,68.92
2017-10-15T18:10:57.358Z,69.00
2017-10-15T18:13:23.831Z,69.13
2017-10-15T18:15:50.368Z,69.53
2017-10-15T18:18:17.603Z,69.63
2017-10-15T18:20:43.997Z,69.28
2017-10-15T18:23:10.471Z,69.53
2017-10-15T18:25:37.696Z,69.78
2017-10-15T18:28:04.280Z,70.44
2017-10-15T18:30:31.674Z,70.61
2017-10-15T18:32:58.033Z,70.92
2017-10-15T18:35:24.428Z,71.35
2017-10-15T18:37:50.827Z,71.54
2017-10-15T18:40:17.203Z,71.73
2017-10-15T18:42:43.647Z,71.86
2017-10-15T18:45:11.280Z,72.27
2017-10-15T18:47:37.729Z,72.40
2017-10-15T18:50:04.200Z,72.64
2017-10-15T18:52:31.844Z,72.86
2017-10-15T18:54:58.275Z,73.28
2017-10-15T18:57:24.704Z,73.48
2017-10-15T18:59:51.173Z,73.37
2017-10-15T19:02:17.524Z,73.74
2017-10-15T19:04:44.620Z,73.79
2017-10-15T19:07:11.790Z,73.91
2017-10-15T19:09:39.162Z,74.19
2017-10-15T19:12:05.770Z,74.22
2017-10-15T19:14:32.277Z,74.15
2017-10-15T19:16:58.641Z,74.42
2017-10-15T19:19:25.182Z,74.47
2017-10-15T19:21:51.648Z,74.67
2017-10-15T19:24:18.011Z,74.55
2017-10-15T19:26:44.347Z,74.36
2017-10-15T19:29:10.756Z,74.39
2017-10-15T19:31:37.872Z,74.96
2017-10-15T19:34:04.422Z,74.89
2017-10-15T19:36:30.802Z,74.97
2017-10-15T19:38:57.226Z,75.04
2017-10-15T19:41:24.718Z,74.99
2017-10-15T19:43:51.100Z,74.95
2017-10-15T19:46:17.463Z,74.89
2017-10-15T19:48:43.854Z,74.79
2017-10-15T19:51:11.034Z,74.69
2017-10-15T19:53:37.396Z,74.59
2017-10-15T19:56:04.647Z,74.81
2017-10-15T19:58:31.299Z,74.83
2017-10-15T20:00:57.668Z,74.63
2017-10-15T20:03:24.777Z,74.98
2017-10-15T20:05:51.831Z,75.37
2017-10-15T20:08:18.940Z,75.24
2017-10-15T20:10:45.453Z,75.25
2017-10-15T20:13:12.556Z,75.04
2017-10-15T20:15:38.924Z,75.45
2017-10-15T20:18:06.080Z,76.19
2017-10-15T20:20:33.148Z,76.39
2017-10-15T20:22:59.454Z,76.84
2017-10-15T20:25:26.847Z,76.84
2017-10-15T20:27:53.178Z,76.82
2017-10-15T20:30:19.608Z,76.76
2017-10-15T20:32:46.018Z,76.94
2017-10-15T20:35:13.066Z,76.76
2017-10-15T20:37:40.114Z,76.80
2017-10-15T20:40:07.122Z,76.42
2017-10-15T20:42:34.004Z,76.83
2017-10-15T20:45:01.087Z,77.35
2017-10-15T20:47:27.404Z,77.28
2017-10-15T20:49:53.747Z,76.83
2017-10-15T20:52:20.552Z,76.98
2017-10-15T20:54:47.635Z,77.52
2017-10-15T20:57:14.077Z,76.98
2017-10-15T20:59:40.421Z,78.03
2017-10-15T21:02:07.620Z,78.00
2017-10-15T21:04:34.661Z,78.10
2017-10-15T21:07:01.732Z,77.93
2017-10-15T21:09:28.086Z,78.16
2017-10-15T21:11:54.444Z,78.56
2017-10-15T21:14:20.794Z,78.42
2017-10-15T21:16:47.104Z,78.32
2017-10-15T21:19:13.482Z,78.47
2017-10-15T21:21:39.835Z,78.88
2017-10-15T21:24:06.168Z,78.90
2017-10-15T21:26:33.211Z,79.01
2017-10-15T21:28:59.602Z,78.89
2017-10-15T21:31:26.905Z,78.67
2017-10-15T21:33:53.262Z,78.68
2017-10-15T21:36:19.637Z,78.47
2017-10-15T21:38:46.717Z,78.22
2017-10-15T21:41:13.209Z,79.09
2017-10-15T21:43:39.526Z,79.59
2017-10-15T21:46:05.869Z,79.85
2017-10-15T21:48:32.249Z,79.21
2017-10-15T21:50:58.699Z,78.83
2017-10-15T21:53:25.015Z,77.96
2017-10-15T21:55:51.341Z,78.15
2017-10-15T21:58:17.612Z,78.86
2017-10-15T22:00:43.905Z,79.17
2017-10-15T22:03:10.260Z,79.62
2017-10-15T22:05:36.625Z,79.06
2017-10-15T22:08:04.695Z,79.24
2017-10-15T22:10:31.733Z,79.43
2017-10-15T22:12:58.986Z,79.46
2017-10-15T22:15:25.295Z,79.45
2017-10-15T22:17:51.581Z,79.50
2017-10-15T22:20:17.997Z,79.65
2017-10-15T22:22:45.109Z,79.61
2017-10-15T22:25:12.035Z,79.63
2017-10-15T22:27:38.383Z,79.84
2017-10-15T22:30:05.432Z,79.75
2017-10-15T22:32:31.771Z,79.66
2017-10-15T22:34:58.087Z,79.95
2017-10-15T22:37:24.437Z,79.90
2017-10-15T22:39:50.733Z,79.43
2017-10-15T22:42:17.105Z,79.07
2017-10-15T22:44:44.359Z,79.21
2017-10-15T22:47:10.704Z,79.09
2017-10-15T22:49:37.078Z,79.30
2017-10-15T22:52:04.202Z,79.09
2017-10-15T22:54:30.532Z,78.78
2017-10-15T22:56:56.933Z,79.39
2017-10-15T22:59:23.266Z,79.47
2017-10-15T23:01:49.616Z,78.95
2017-10-15T23:04:16.722Z,78.38
2017-10-15T23:06:43.041Z,78.61
2017-10-15T23:09:09.377Z,79.04
2017-10-15T23:11:35.667Z,79.29
2017-10-15T23:14:02.721Z,78.69
2017-10-15T23:16:29.745Z,79.16
2017-10-15T23:18:56.102Z,79.09
2017-10-15T23:21:23.152Z,79.00
2017-10-15T23:23:49.495Z,79.10
2017-10-15T23:26:15.819Z,79.13
2017-10-15T23:28:42.117Z,79.93
2017-10-15T23:31:08.480Z,79.64
2017-10-15T23:33:34.793Z,80.13
2017-10-15T23:36:01.935Z,80.54
2017-10-15T23:38:28.255Z,79.88
2017-10-15T23:40:54.581Z,79.48
2017-10-15T23:43:20.937Z,79.23
2017-10-15T23:45:47.259Z,78.53
2017-10-15T23:48:13.580Z,78.52
2017-10-15T23:50:39.917Z,79.34
2017-10-15T23:53:06.235Z,79.44
2017-10-15T23:55:32.562Z,79.82
2017-10-15T23:57:59.580Z,79.73
